sensor_id;sensor_type;location;lat;lon;timestamp;temperature;humidity
52575;DHT22;38468;48.114;-1.684;2022-12-07T00:00:22;4.60;76.60
52575;DHT22;38468;48.114;-1.684;2022-12-07T00:02:22;4.50;76.10
52575;DHT22;38468;48.114;-1.684;2022-12-07T00:04:23;4.50;76.60
52575;DHT22;38468;48.114;-1.684;2022-12-07T00:06:24;4.50;76.40
52575;DHT22;38468;48.114;-1.684;2022-12-07T00:08:24;4.50;76.50
52575;DHT22;38468;48.114;-1.684;2022-12-07T00:10:25;4.50;76.60
52575;DHT22;38468;48.114;-1.684;2022-12-07T00:12:26;4.50;76.60
52575;DHT22;38468;48.114;-1.684;2022-12-07T00:14:26;4.60;76.50
52575;DHT22;38468;48.114;-1.684;2022-12-07T00:16:30;4.60;76.60
52575;DHT22;38468;48.114;-1.684;2022-12-07T00:18:31;4.70;76.50
52575;DHT22;38468;48.114;-1.684;2022-12-07T00:20:32;4.50;76.60
52575;DHT22;38468;48.114;-1.684;2022-12-07T00:22:33;4.60;76.40
52575;DHT22;38468;48.114;-1.684;2022-12-07T00:24:34;4.60;76.30
52575;DHT22;38468;48.114;-1.684;2022-12-07T00:26:39;4.60;76.50
52575;DHT22;38468;48.114;-1.684;2022-12-07T00:28:40;4.50;76.40
52575;DHT22;38468;48.114;-1.684;2022-12-07T00:30:41;4.50;76.80
52575;DHT22;38468;48.114;-1.684;2022-12-07T00:32:42;4.50;76.70
52575;DHT22;38468;48.114;-1.684;2022-12-07T00:34:42;4.60;76.20
52575;DHT22;38468;48.114;-1.684;2022-12-07T00:36:43;4.50;76.30
52575;DHT22;38468;48.114;-1.684;2022-12-07T00:38:43;4.50;76.30
52575;DHT22;38468;48.114;-1.684;2022-12-07T00:40:57;4.50;76.10
52575;DHT22;38468;48.114;-1.684;2022-12-07T00:42:57;4.50;76.50
52575;DHT22;38468;48.114;-1.684;2022-12-07T00:44:58;4.50;76.40
52575;DHT22;38468;48.114;-1.684;2022-12-07T00:46:59;4.60;76.30
52575;DHT22;38468;48.114;-1.684;2022-12-07T00:48:59;4.60;76.10
52575;DHT22;38468;48.114;-1.684;2022-12-07T00:51:01;4.50;76.40
52575;DHT22;38468;48.114;-1.684;2022-12-07T00:53:01;4.50;76.40
52575;DHT22;38468;48.114;-1.684;2022-12-07T00:55:02;4.50;76.20
52575;DHT22;38468;48.114;-1.684;2022-12-07T00:57:03;4.40;76.60
52575;DHT22;38468;48.114;-1.684;2022-12-07T00:59:04;4.50;76.50
52575;DHT22;38468;48.114;-1.684;2022-12-07T01:01:06;4.50;76.60
52575;DHT22;38468;48.114;-1.684;2022-12-07T01:03:09;4.50;76.70
52575;DHT22;38468;48.114;-1.684;2022-12-07T01:05:10;4.40;76.70
52575;DHT22;38468;48.114;-1.684;2022-12-07T01:07:11;4.40;76.70
52575;DHT22;38468;48.114;-1.684;2022-12-07T01:09:11;4.40;76.70
52575;DHT22;38468;48.114;-1.684;2022-12-07T01:11:18;4.40;76.40
52575;DHT22;38468;48.114;-1.684;2022-12-07T01:13:18;4.40;76.50
52575;DHT22;38468;48.114;-1.684;2022-12-07T01:15:19;4.40;76.40
52575;DHT22;38468;48.114;-1.684;2022-12-07T01:17:20;4.40;76.30
52575;DHT22;38468;48.114;-1.684;2022-12-07T01:19:20;4.30;76.20
52575;DHT22;38468;48.114;-1.684;2022-12-07T01:21:24;4.30;76.20
52575;DHT22;38468;48.114;-1.684;2022-12-07T01:23:25;4.30;76.50
52575;DHT22;38468;48.114;-1.684;2022-12-07T01:25:25;4.20;76.40
52575;DHT22;38468;48.114;-1.684;2022-12-07T01:27:26;4.20;76.40
52575;DHT22;38468;48.114;-1.684;2022-12-07T01:29:27;4.20;76.50
52575;DHT22;38468;48.114;-1.684;2022-12-07T01:31:28;4.20;76.80
52575;DHT22;38468;48.114;-1.684;2022-12-07T01:33:31;4.10;77.00
52575;DHT22;38468;48.114;-1.684;2022-12-07T01:35:33;4.00;76.80
52575;DHT22;38468;48.114;-1.684;2022-12-07T01:37:38;4.00;76.70
52575;DHT22;38468;48.114;-1.684;2022-12-07T01:39:39;4.00;76.40
52575;DHT22;38468;48.114;-1.684;2022-12-07T01:41:41;3.90;76.70
52575;DHT22;38468;48.114;-1.684;2022-12-07T01:44:18;3.90;76.70
52575;DHT22;38468;48.114;-1.684;2022-12-07T01:46:19;3.90;76.50
52575;DHT22;38468;48.114;-1.684;2022-12-07T01:48:24;3.70;76.40
52575;DHT22;38468;48.114;-1.684;2022-12-07T01:50:27;3.60;76.60
52575;DHT22;38468;48.114;-1.684;2022-12-07T01:52:31;3.60;76.80
52575;DHT22;38468;48.114;-1.684;2022-12-07T01:54:34;3.60;76.90
52575;DHT22;38468;48.114;-1.684;2022-12-07T01:56:36;3.50;76.80
52575;DHT22;38468;48.114;-1.684;2022-12-07T01:58:37;3.40;77.10
52575;DHT22;38468;48.114;-1.684;2022-12-07T02:00:38;3.40;77.20
52575;DHT22;38468;48.114;-1.684;2022-12-07T02:04:47;3.40;77.20
52575;DHT22;38468;48.114;-1.684;2022-12-07T02:06:48;3.30;77.40
52575;DHT22;38468;48.114;-1.684;2022-12-07T02:08:49;3.30;77.60
52575;DHT22;38468;48.114;-1.684;2022-12-07T02:10:50;3.40;77.50
52575;DHT22;38468;48.114;-1.684;2022-12-07T02:12:54;3.30;77.20
52575;DHT22;38468;48.114;-1.684;2022-12-07T02:14:56;3.20;77.20
52575;DHT22;38468;48.114;-1.684;2022-12-07T02:17:29;3.30;77.30
52575;DHT22;38468;48.114;-1.684;2022-12-07T02:20:08;3.30;77.20
52575;DHT22;38468;48.114;-1.684;2022-12-07T02:31:50;3.10;77.80
52575;DHT22;38468;48.114;-1.684;2022-12-07T02:34:28;3.10;77.70
52575;DHT22;38468;48.114;-1.684;2022-12-07T02:36:30;3.10;77.40
52575;DHT22;38468;48.114;-1.684;2022-12-07T02:39:24;3.00;77.60
52575;DHT22;38468;48.114;-1.684;2022-12-07T02:43:31;2.90;77.80
52575;DHT22;38468;48.114;-1.684;2022-12-07T02:45:35;2.90;77.80
52575;DHT22;38468;48.114;-1.684;2022-12-07T02:47:39;2.90;78.10
52575;DHT22;38468;48.114;-1.684;2022-12-07T02:49:42;3.00;77.90
52575;DHT22;38468;48.114;-1.684;2022-12-07T02:51:45;2.90;77.90
52575;DHT22;38468;48.114;-1.684;2022-12-07T02:53:46;2.80;78.00
52575;DHT22;38468;48.114;-1.684;2022-12-07T02:55:47;2.90;78.20
52575;DHT22;38468;48.114;-1.684;2022-12-07T03:06:34;2.80;78.10
52575;DHT22;38468;48.114;-1.684;2022-12-07T03:09:01;2.80;78.30
52575;DHT22;38468;48.114;-1.684;2022-12-07T03:11:09;2.80;78.30
52575;DHT22;38468;48.114;-1.684;2022-12-07T03:15:39;2.80;78.00
52575;DHT22;38468;48.114;-1.684;2022-12-07T03:17:44;2.80;78.20
52575;DHT22;38468;48.114;-1.684;2022-12-07T03:19:48;2.70;78.10
52575;DHT22;38468;48.114;-1.684;2022-12-07T03:21:56;2.70;78.30
52575;DHT22;38468;48.114;-1.684;2022-12-07T03:24:00;2.70;78.30
52575;DHT22;38468;48.114;-1.684;2022-12-07T03:26:04;2.80;78.40
52575;DHT22;38468;48.114;-1.684;2022-12-07T03:28:07;2.70;78.20
52575;DHT22;38468;48.114;-1.684;2022-12-07T03:30:14;2.60;78.20
52575;DHT22;38468;48.114;-1.684;2022-12-07T03:32:30;2.70;78.40
52575;DHT22;38468;48.114;-1.684;2022-12-07T03:34:40;2.60;78.20
52575;DHT22;38468;48.114;-1.684;2022-12-07T03:37:03;2.60;78.40
52575;DHT22;38468;48.114;-1.684;2022-12-07T03:39:19;2.60;78.40
52575;DHT22;38468;48.114;-1.684;2022-12-07T03:41:27;2.50;78.40
52575;DHT22;38468;48.114;-1.684;2022-12-07T03:43:29;2.60;78.50
52575;DHT22;38468;48.114;-1.684;2022-12-07T03:45:42;2.60;78.50
52575;DHT22;38468;48.114;-1.684;2022-12-07T03:47:48;2.50;78.20
52575;DHT22;38468;48.114;-1.684;2022-12-07T03:49:56;2.50;78.50
52575;DHT22;38468;48.114;-1.684;2022-12-07T03:52:24;2.50;78.50
52575;DHT22;38468;48.114;-1.684;2022-12-07T03:54:29;2.40;78.60
52575;DHT22;38468;48.114;-1.684;2022-12-07T03:56:30;2.50;78.80
52575;DHT22;38468;48.114;-1.684;2022-12-07T03:58:33;2.50;78.60
52575;DHT22;38468;48.114;-1.684;2022-12-07T04:00:34;2.50;78.40
52575;DHT22;38468;48.114;-1.684;2022-12-07T04:02:36;2.40;78.50
52575;DHT22;38468;48.114;-1.684;2022-12-07T04:04:37;2.40;78.50
52575;DHT22;38468;48.114;-1.684;2022-12-07T04:06:37;2.40;78.70
52575;DHT22;38468;48.114;-1.684;2022-12-07T04:08:38;2.50;78.60
52575;DHT22;38468;48.114;-1.684;2022-12-07T04:10:39;2.50;78.60
52575;DHT22;38468;48.114;-1.684;2022-12-07T04:12:40;2.40;78.50
52575;DHT22;38468;48.114;-1.684;2022-12-07T04:14:40;2.40;78.60
52575;DHT22;38468;48.114;-1.684;2022-12-07T04:16:41;2.40;78.60
52575;DHT22;38468;48.114;-1.684;2022-12-07T04:18:42;2.50;78.50
52575;DHT22;38468;48.114;-1.684;2022-12-07T04:20:43;2.40;78.20
52575;DHT22;38468;48.114;-1.684;2022-12-07T04:22:43;2.40;78.60
52575;DHT22;38468;48.114;-1.684;2022-12-07T04:24:44;2.40;78.60
52575;DHT22;38468;48.114;-1.684;2022-12-07T04:26:45;2.40;78.70
52575;DHT22;38468;48.114;-1.684;2022-12-07T04:28:46;2.30;78.10
52575;DHT22;38468;48.114;-1.684;2022-12-07T04:30:47;2.20;78.50
52575;DHT22;38468;48.114;-1.684;2022-12-07T04:32:47;2.20;78.90
52575;DHT22;38468;48.114;-1.684;2022-12-07T04:34:48;2.30;78.90
52575;DHT22;38468;48.114;-1.684;2022-12-07T04:36:49;2.30;78.70
52575;DHT22;38468;48.114;-1.684;2022-12-07T04:38:50;2.20;78.80
52575;DHT22;38468;48.114;-1.684;2022-12-07T04:40:53;2.20;78.70
52575;DHT22;38468;48.114;-1.684;2022-12-07T04:42:53;2.10;79.00
52575;DHT22;38468;48.114;-1.684;2022-12-07T04:44:54;2.10;79.00
52575;DHT22;38468;48.114;-1.684;2022-12-07T04:46:55;2.20;79.00
52575;DHT22;38468;48.114;-1.684;2022-12-07T04:48:57;2.30;78.70
52575;DHT22;38468;48.114;-1.684;2022-12-07T04:50:58;2.20;78.60
52575;DHT22;38468;48.114;-1.684;2022-12-07T04:52:58;2.10;78.70
52575;DHT22;38468;48.114;-1.684;2022-12-07T04:54:59;2.20;78.70
52575;DHT22;38468;48.114;-1.684;2022-12-07T04:57:00;2.20;78.70
52575;DHT22;38468;48.114;-1.684;2022-12-07T04:59:01;2.20;78.70
52575;DHT22;38468;48.114;-1.684;2022-12-07T05:01:02;2.20;78.60
52575;DHT22;38468;48.114;-1.684;2022-12-07T05:03:03;2.20;78.50
52575;DHT22;38468;48.114;-1.684;2022-12-07T05:05:03;2.20;78.60
52575;DHT22;38468;48.114;-1.684;2022-12-07T05:07:04;2.10;78.20
52575;DHT22;38468;48.114;-1.684;2022-12-07T05:09:05;2.10;78.80
52575;DHT22;38468;48.114;-1.684;2022-12-07T05:11:06;2.10;78.90
52575;DHT22;38468;48.114;-1.684;2022-12-07T05:13:07;2.20;78.80
52575;DHT22;38468;48.114;-1.684;2022-12-07T05:15:08;2.30;78.70
52575;DHT22;38468;48.114;-1.684;2022-12-07T05:17:09;2.30;78.60
52575;DHT22;38468;48.114;-1.684;2022-12-07T05:19:12;2.20;78.30
52575;DHT22;38468;48.114;-1.684;2022-12-07T05:21:12;2.20;78.40
52575;DHT22;38468;48.114;-1.684;2022-12-07T05:23:13;2.30;78.30
52575;DHT22;38468;48.114;-1.684;2022-12-07T05:25:14;2.30;78.40
52575;DHT22;38468;48.114;-1.684;2022-12-07T05:27:14;2.30;78.00
52575;DHT22;38468;48.114;-1.684;2022-12-07T05:29:16;2.20;78.30
52575;DHT22;38468;48.114;-1.684;2022-12-07T05:31:17;2.30;78.20
52575;DHT22;38468;48.114;-1.684;2022-12-07T05:33:18;2.10;78.20
52575;DHT22;38468;48.114;-1.684;2022-12-07T05:35:19;2.20;78.30
52575;DHT22;38468;48.114;-1.684;2022-12-07T05:37:19;2.10;78.20
52575;DHT22;38468;48.114;-1.684;2022-12-07T05:39:20;2.10;78.10
52575;DHT22;38468;48.114;-1.684;2022-12-07T05:41:21;2.10;78.40
52575;DHT22;38468;48.114;-1.684;2022-12-07T05:43:40;2.00;78.10
52575;DHT22;38468;48.114;-1.684;2022-12-07T05:45:40;2.10;78.50
52575;DHT22;38468;48.114;-1.684;2022-12-07T05:47:41;2.00;78.50
52575;DHT22;38468;48.114;-1.684;2022-12-07T05:49:42;2.00;78.50
52575;DHT22;38468;48.114;-1.684;2022-12-07T05:51:43;2.10;78.50
52575;DHT22;38468;48.114;-1.684;2022-12-07T05:53:44;2.00;78.40
52575;DHT22;38468;48.114;-1.684;2022-12-07T05:55:45;2.10;78.60
52575;DHT22;38468;48.114;-1.684;2022-12-07T05:57:45;2.10;78.40
52575;DHT22;38468;48.114;-1.684;2022-12-07T06:00:06;2.00;78.20
52575;DHT22;38468;48.114;-1.684;2022-12-07T06:02:10;1.90;78.40
52575;DHT22;38468;48.114;-1.684;2022-12-07T06:04:11;1.80;78.00
52575;DHT22;38468;48.114;-1.684;2022-12-07T06:06:11;1.70;78.10
52575;DHT22;38468;48.114;-1.684;2022-12-07T06:08:12;1.60;78.30
52575;DHT22;38468;48.114;-1.684;2022-12-07T06:10:15;1.40;79.10
52575;DHT22;38468;48.114;-1.684;2022-12-07T06:12:16;1.40;79.30
52575;DHT22;38468;48.114;-1.684;2022-12-07T06:14:35;1.50;79.30
52575;DHT22;38468;48.114;-1.684;2022-12-07T06:16:36;1.50;79.10
52575;DHT22;38468;48.114;-1.684;2022-12-07T06:18:37;1.40;79.20
52575;DHT22;38468;48.114;-1.684;2022-12-07T06:20:37;1.40;79.50
52575;DHT22;38468;48.114;-1.684;2022-12-07T06:22:38;1.50;79.40
52575;DHT22;38468;48.114;-1.684;2022-12-07T06:24:39;1.60;79.50
52575;DHT22;38468;48.114;-1.684;2022-12-07T06:26:40;1.60;79.30
52575;DHT22;38468;48.114;-1.684;2022-12-07T06:28:41;1.70;79.30
52575;DHT22;38468;48.114;-1.684;2022-12-07T06:30:42;1.70;79.10
52575;DHT22;38468;48.114;-1.684;2022-12-07T06:32:43;1.60;79.30
52575;DHT22;38468;48.114;-1.684;2022-12-07T06:34:43;1.70;79.40
52575;DHT22;38468;48.114;-1.684;2022-12-07T06:36:44;1.80;79.30
52575;DHT22;38468;48.114;-1.684;2022-12-07T06:38:45;1.90;79.10
52575;DHT22;38468;48.114;-1.684;2022-12-07T06:40:46;1.90;79.10
52575;DHT22;38468;48.114;-1.684;2022-12-07T06:42:46;1.90;78.80
52575;DHT22;38468;48.114;-1.684;2022-12-07T06:44:47;1.90;79.10
52575;DHT22;38468;48.114;-1.684;2022-12-07T06:46:48;1.90;78.70
52575;DHT22;38468;48.114;-1.684;2022-12-07T06:48:49;1.90;78.80
52575;DHT22;38468;48.114;-1.684;2022-12-07T06:50:50;1.90;79.00
52575;DHT22;38468;48.114;-1.684;2022-12-07T06:52:51;1.90;79.20
52575;DHT22;38468;48.114;-1.684;2022-12-07T06:54:52;1.90;79.10
52575;DHT22;38468;48.114;-1.684;2022-12-07T06:56:53;1.90;79.20
52575;DHT22;38468;48.114;-1.684;2022-12-07T06:58:53;1.80;78.90
52575;DHT22;38468;48.114;-1.684;2022-12-07T07:00:54;1.40;79.70
52575;DHT22;38468;48.114;-1.684;2022-12-07T07:02:55;1.50;79.80
52575;DHT22;38468;48.114;-1.684;2022-12-07T07:04:56;1.60;79.80
52575;DHT22;38468;48.114;-1.684;2022-12-07T07:06:56;1.70;79.80
52575;DHT22;38468;48.114;-1.684;2022-12-07T07:08:57;1.80;79.70
52575;DHT22;38468;48.114;-1.684;2022-12-07T07:10:57;1.70;79.30
52575;DHT22;38468;48.114;-1.684;2022-12-07T07:12:58;1.60;79.30
52575;DHT22;38468;48.114;-1.684;2022-12-07T07:14:59;1.60;79.80
52575;DHT22;38468;48.114;-1.684;2022-12-07T07:16:59;1.50;79.50
52575;DHT22;38468;48.114;-1.684;2022-12-07T07:19:00;1.50;79.80
52575;DHT22;38468;48.114;-1.684;2022-12-07T07:21:01;1.40;79.80
52575;DHT22;38468;48.114;-1.684;2022-12-07T07:23:02;1.40;80.00
52575;DHT22;38468;48.114;-1.684;2022-12-07T07:25:03;1.40;80.30
52575;DHT22;38468;48.114;-1.684;2022-12-07T07:27:04;1.40;80.10
52575;DHT22;38468;48.114;-1.684;2022-12-07T07:29:05;1.50;80.00
52575;DHT22;38468;48.114;-1.684;2022-12-07T07:31:05;1.60;79.90
52575;DHT22;38468;48.114;-1.684;2022-12-07T07:33:06;1.60;79.60
52575;DHT22;38468;48.114;-1.684;2022-12-07T07:35:07;1.60;79.70
52575;DHT22;38468;48.114;-1.684;2022-12-07T07:37:08;1.80;79.70
52575;DHT22;38468;48.114;-1.684;2022-12-07T07:39:11;1.80;79.50
52575;DHT22;38468;48.114;-1.684;2022-12-07T07:41:14;1.90;79.40
52575;DHT22;38468;48.114;-1.684;2022-12-07T07:43:15;2.00;79.20
52575;DHT22;38468;48.114;-1.684;2022-12-07T07:45:16;2.00;78.90
52575;DHT22;38468;48.114;-1.684;2022-12-07T07:47:17;2.00;79.00
52575;DHT22;38468;48.114;-1.684;2022-12-07T07:49:17;2.00;78.70
52575;DHT22;38468;48.114;-1.684;2022-12-07T07:51:18;2.10;78.80
52575;DHT22;38468;48.114;-1.684;2022-12-07T07:53:19;1.90;78.10
52575;DHT22;38468;48.114;-1.684;2022-12-07T07:55:19;1.90;78.60
52575;DHT22;38468;48.114;-1.684;2022-12-07T07:57:20;1.50;78.60
52575;DHT22;38468;48.114;-1.684;2022-12-07T07:59:21;1.40;79.90
52575;DHT22;38468;48.114;-1.684;2022-12-07T08:01:21;1.40;80.10
52575;DHT22;38468;48.114;-1.684;2022-12-07T08:03:22;1.40;79.80
52575;DHT22;38468;48.114;-1.684;2022-12-07T08:05:23;1.50;79.90
52575;DHT22;38468;48.114;-1.684;2022-12-07T08:07:23;1.60;79.80
52575;DHT22;38468;48.114;-1.684;2022-12-07T08:09:24;1.70;79.40
52575;DHT22;38468;48.114;-1.684;2022-12-07T08:11:25;1.90;79.30
52575;DHT22;38468;48.114;-1.684;2022-12-07T08:13:26;2.00;78.90
52575;DHT22;38468;48.114;-1.684;2022-12-07T08:15:27;1.90;78.30
52575;DHT22;38468;48.114;-1.684;2022-12-07T08:17:28;1.70;78.30
52575;DHT22;38468;48.114;-1.684;2022-12-07T08:19:29;1.70;79.50
52575;DHT22;38468;48.114;-1.684;2022-12-07T08:21:30;1.90;79.40
52575;DHT22;38468;48.114;-1.684;2022-12-07T08:23:31;2.00;79.10
52575;DHT22;38468;48.114;-1.684;2022-12-07T08:25:32;2.10;78.80
52575;DHT22;38468;48.114;-1.684;2022-12-07T08:27:32;2.30;78.60
52575;DHT22;38468;48.114;-1.684;2022-12-07T08:29:33;2.40;78.40
52575;DHT22;38468;48.114;-1.684;2022-12-07T08:31:34;2.50;78.10
52575;DHT22;38468;48.114;-1.684;2022-12-07T08:33:35;2.60;77.70
52575;DHT22;38468;48.114;-1.684;2022-12-07T08:35:36;2.70;77.50
52575;DHT22;38468;48.114;-1.684;2022-12-07T08:37:37;2.80;77.10
52575;DHT22;38468;48.114;-1.684;2022-12-07T08:39:38;2.80;76.70
52575;DHT22;38468;48.114;-1.684;2022-12-07T08:41:38;2.90;76.70
52575;DHT22;38468;48.114;-1.684;2022-12-07T08:43:39;3.10;76.50
52575;DHT22;38468;48.114;-1.684;2022-12-07T08:45:40;3.00;75.40
52575;DHT22;38468;48.114;-1.684;2022-12-07T08:47:45;2.70;75.50
52575;DHT22;38468;48.114;-1.684;2022-12-07T08:49:47;2.80;76.30
52575;DHT22;38468;48.114;-1.684;2022-12-07T08:51:50;2.90;75.30
52575;DHT22;38468;48.114;-1.684;2022-12-07T08:53:52;3.00;75.50
52575;DHT22;38468;48.114;-1.684;2022-12-07T08:55:53;3.50;74.60
52575;DHT22;38468;48.114;-1.684;2022-12-07T08:57:57;4.40;74.00
52575;DHT22;38468;48.114;-1.684;2022-12-07T08:59:58;6.00;70.60
52575;DHT22;38468;48.114;-1.684;2022-12-07T09:01:59;6.70;65.70
52575;DHT22;38468;48.114;-1.684;2022-12-07T09:04:00;7.40;65.40
52575;DHT22;38468;48.114;-1.684;2022-12-07T09:06:00;9.00;62.20
52575;DHT22;38468;48.114;-1.684;2022-12-07T09:08:01;9.10;55.90
52575;DHT22;38468;48.114;-1.684;2022-12-07T09:10:03;9.20;58.60
52575;DHT22;38468;48.114;-1.684;2022-12-07T09:12:04;9.10;54.90
52575;DHT22;38468;48.114;-1.684;2022-12-07T09:14:05;7.60;58.50
52575;DHT22;38468;48.114;-1.684;2022-12-07T09:16:06;8.00;59.70
52575;DHT22;38468;48.114;-1.684;2022-12-07T09:18:06;9.00;58.50
52575;DHT22;38468;48.114;-1.684;2022-12-07T09:20:07;9.60;54.30
52575;DHT22;38468;48.114;-1.684;2022-12-07T09:22:08;9.20;54.00
52575;DHT22;38468;48.114;-1.684;2022-12-07T09:24:09;8.50;58.00
52575;DHT22;38468;48.114;-1.684;2022-12-07T09:26:10;8.50;55.40
52575;DHT22;38468;48.114;-1.684;2022-12-07T09:28:11;8.60;59.30
52575;DHT22;38468;48.114;-1.684;2022-12-07T09:30:12;10.00;52.90
52575;DHT22;38468;48.114;-1.684;2022-12-07T09:32:12;11.00;51.50
52575;DHT22;38468;48.114;-1.684;2022-12-07T09:34:13;11.10;49.90
52575;DHT22;38468;48.114;-1.684;2022-12-07T09:36:14;9.20;54.10
52575;DHT22;38468;48.114;-1.684;2022-12-07T09:38:15;10.40;53.30
52575;DHT22;38468;48.114;-1.684;2022-12-07T09:40:18;11.90;49.70
52575;DHT22;38468;48.114;-1.684;2022-12-07T09:42:34;12.40;47.00
52575;DHT22;38468;48.114;-1.684;2022-12-07T09:44:36;11.70;47.30
52575;DHT22;38468;48.114;-1.684;2022-12-07T09:46:39;12.00;46.80
52575;DHT22;38468;48.114;-1.684;2022-12-07T09:48:42;12.10;46.10
52575;DHT22;38468;48.114;-1.684;2022-12-07T09:50:43;13.40;45.70
52575;DHT22;38468;48.114;-1.684;2022-12-07T09:52:45;14.50;40.50
52575;DHT22;38468;48.114;-1.684;2022-12-07T09:54:50;14.50;41.60
52575;DHT22;38468;48.114;-1.684;2022-12-07T09:56:51;15.00;39.80
52575;DHT22;38468;48.114;-1.684;2022-12-07T09:58:59;15.20;41.10
52575;DHT22;38468;48.114;-1.684;2022-12-07T10:03:08;14.90;40.80
52575;DHT22;38468;48.114;-1.684;2022-12-07T10:05:14;15.80;38.20
52575;DHT22;38468;48.114;-1.684;2022-12-07T10:07:15;16.10;38.50
52575;DHT22;38468;48.114;-1.684;2022-12-07T10:09:18;16.00;38.00
52575;DHT22;38468;48.114;-1.684;2022-12-07T10:11:19;15.60;39.30
52575;DHT22;38468;48.114;-1.684;2022-12-07T10:17:49;15.80;39.10
52575;DHT22;38468;48.114;-1.684;2022-12-07T10:19:50;15.30;39.60
52575;DHT22;38468;48.114;-1.684;2022-12-07T10:22:12;16.30;38.30
52575;DHT22;38468;48.114;-1.684;2022-12-07T10:24:14;17.00;36.50
52575;DHT22;38468;48.114;-1.684;2022-12-07T10:28:35;17.10;36.20
52575;DHT22;38468;48.114;-1.684;2022-12-07T10:30:58;16.50;36.40
52575;DHT22;38468;48.114;-1.684;2022-12-07T10:32:59;16.50;37.60
52575;DHT22;38468;48.114;-1.684;2022-12-07T10:35:30;15.90;38.50
52575;DHT22;38468;48.114;-1.684;2022-12-07T10:37:40;16.20;38.00
52575;DHT22;38468;48.114;-1.684;2022-12-07T10:41:58;15.90;37.80
52575;DHT22;38468;48.114;-1.684;2022-12-07T10:43:59;14.60;40.20
52575;DHT22;38468;48.114;-1.684;2022-12-07T11:00:23;7.70;57.60
52575;DHT22;38468;48.114;-1.684;2022-12-07T11:11:36;5.50;66.00
52575;DHT22;38468;48.114;-1.684;2022-12-07T11:14:00;5.50;66.30
52575;DHT22;38468;48.114;-1.684;2022-12-07T11:23:04;5.90;66.10
52575;DHT22;38468;48.114;-1.684;2022-12-07T11:26:16;5.70;67.40
52575;DHT22;38468;48.114;-1.684;2022-12-07T11:30:34;6.70;65.60
52575;DHT22;38468;48.114;-1.684;2022-12-07T11:37:21;6.70;64.70
52575;DHT22;38468;48.114;-1.684;2022-12-07T11:41:35;7.60;63.70
52575;DHT22;38468;48.114;-1.684;2022-12-07T11:43:47;8.20;61.60
52575;DHT22;38468;48.114;-1.684;2022-12-07T11:46:04;8.60;60.30
52575;DHT22;38468;48.114;-1.684;2022-12-07T11:48:20;8.40;59.30
52575;DHT22;38468;48.114;-1.684;2022-12-07T11:50:51;7.40;62.60
52575;DHT22;38468;48.114;-1.684;2022-12-07T11:53:10;8.40;61.80
52575;DHT22;38468;48.114;-1.684;2022-12-07T11:55:21;9.10;58.90
52575;DHT22;38468;48.114;-1.684;2022-12-07T11:57:39;9.50;57.40
52575;DHT22;38468;48.114;-1.684;2022-12-07T11:59:47;8.50;58.70
52575;DHT22;38468;48.114;-1.684;2022-12-07T12:01:52;8.10;60.20
52575;DHT22;38468;48.114;-1.684;2022-12-07T12:06:11;8.80;60.80
52575;DHT22;38468;48.114;-1.684;2022-12-07T12:08:16;9.80;56.00
52575;DHT22;38468;48.114;-1.684;2022-12-07T12:15:27;10.50;54.90
52575;DHT22;38468;48.114;-1.684;2022-12-07T12:20:15;10.80;54.40
52575;DHT22;38468;48.114;-1.684;2022-12-07T12:22:19;10.60;53.50
52575;DHT22;38468;48.114;-1.684;2022-12-07T12:24:24;10.40;53.60
52575;DHT22;38468;48.114;-1.684;2022-12-07T12:26:28;10.20;54.80
52575;DHT22;38468;48.114;-1.684;2022-12-07T12:28:40;9.90;56.70
52575;DHT22;38468;48.114;-1.684;2022-12-07T12:30:41;10.90;53.10
52575;DHT22;38468;48.114;-1.684;2022-12-07T12:32:44;9.50;56.20
52575;DHT22;38468;48.114;-1.684;2022-12-07T12:36:49;12.50;52.70
52575;DHT22;38468;48.114;-1.684;2022-12-07T12:41:00;14.00;47.50
52575;DHT22;38468;48.114;-1.684;2022-12-07T12:43:01;14.30;47.20
52575;DHT22;38468;48.114;-1.684;2022-12-07T12:47:42;14.90;45.40
52575;DHT22;38468;48.114;-1.684;2022-12-07T12:49:44;15.00;43.40
52575;DHT22;38468;48.114;-1.684;2022-12-07T12:54:28;15.10;42.50
52575;DHT22;38468;48.114;-1.684;2022-12-07T12:59:26;15.20;42.70
52575;DHT22;38468;48.114;-1.684;2022-12-07T13:01:41;16.40;40.90
52575;DHT22;38468;48.114;-1.684;2022-12-07T13:03:52;15.30;41.40
52575;DHT22;38468;48.114;-1.684;2022-12-07T13:06:28;15.80;41.80
52575;DHT22;38468;48.114;-1.684;2022-12-07T13:08:32;15.80;41.20
52575;DHT22;38468;48.114;-1.684;2022-12-07T13:10:35;14.40;44.70
52575;DHT22;38468;48.114;-1.684;2022-12-07T13:12:37;15.80;41.20
52575;DHT22;38468;48.114;-1.684;2022-12-07T13:14:39;16.20;40.60
52575;DHT22;38468;48.114;-1.684;2022-12-07T13:16:41;16.30;39.90
52575;DHT22;38468;48.114;-1.684;2022-12-07T13:18:42;16.30;40.20
52575;DHT22;38468;48.114;-1.684;2022-12-07T13:22:48;17.50;38.40
52575;DHT22;38468;48.114;-1.684;2022-12-07T13:24:49;17.60;37.30
52575;DHT22;38468;48.114;-1.684;2022-12-07T13:26:56;17.80;37.50
52575;DHT22;38468;48.114;-1.684;2022-12-07T13:31:23;17.50;38.00
52575;DHT22;38468;48.114;-1.684;2022-12-07T13:33:28;17.50;37.50
52575;DHT22;38468;48.114;-1.684;2022-12-07T13:35:31;16.50;39.30
52575;DHT22;38468;48.114;-1.684;2022-12-07T13:37:33;16.00;40.20
52575;DHT22;38468;48.114;-1.684;2022-12-07T13:39:35;16.00;40.10
52575;DHT22;38468;48.114;-1.684;2022-12-07T13:41:45;16.00;40.50
52575;DHT22;38468;48.114;-1.684;2022-12-07T13:44:10;16.50;39.90
52575;DHT22;38468;48.114;-1.684;2022-12-07T13:46:11;16.70;39.50
52575;DHT22;38468;48.114;-1.684;2022-12-07T13:48:48;16.60;38.80
52575;DHT22;38468;48.114;-1.684;2022-12-07T13:50:56;17.10;38.70
52575;DHT22;38468;48.114;-1.684;2022-12-07T13:52:59;17.10;38.90
52575;DHT22;38468;48.114;-1.684;2022-12-07T13:57:07;16.50;39.00
52575;DHT22;38468;48.114;-1.684;2022-12-07T13:59:20;15.70;40.90
52575;DHT22;38468;48.114;-1.684;2022-12-07T14:01:21;15.50;42.20
52575;DHT22;38468;48.114;-1.684;2022-12-07T14:03:28;15.10;42.30
52575;DHT22;38468;48.114;-1.684;2022-12-07T14:05:34;15.50;42.20
52575;DHT22;38468;48.114;-1.684;2022-12-07T14:07:35;15.80;41.30
52575;DHT22;38468;48.114;-1.684;2022-12-07T14:09:36;16.00;41.40
52575;DHT22;38468;48.114;-1.684;2022-12-07T14:11:37;15.90;41.30
52575;DHT22;38468;48.114;-1.684;2022-12-07T14:13:44;16.30;40.80
52575;DHT22;38468;48.114;-1.684;2022-12-07T14:15:50;16.20;40.60
52575;DHT22;38468;48.114;-1.684;2022-12-07T14:17:52;16.00;41.20
52575;DHT22;38468;48.114;-1.684;2022-12-07T14:19:58;16.20;40.70
52575;DHT22;38468;48.114;-1.684;2022-12-07T14:22:07;16.10;41.10
52575;DHT22;38468;48.114;-1.684;2022-12-07T14:24:15;16.30;40.60
52575;DHT22;38468;48.114;-1.684;2022-12-07T14:26:20;16.30;40.50
52575;DHT22;38468;48.114;-1.684;2022-12-07T14:28:29;16.60;40.40
52575;DHT22;38468;48.114;-1.684;2022-12-07T14:30:33;16.50;40.30
52575;DHT22;38468;48.114;-1.684;2022-12-07T14:32:36;16.90;40.00
52575;DHT22;38468;48.114;-1.684;2022-12-07T14:34:37;16.50;39.90
52575;DHT22;38468;48.114;-1.684;2022-12-07T14:36:38;16.60;40.20
52575;DHT22;38468;48.114;-1.684;2022-12-07T14:38:40;16.70;40.20
52575;DHT22;38468;48.114;-1.684;2022-12-07T14:40:40;16.90;39.40
52575;DHT22;38468;48.114;-1.684;2022-12-07T14:42:42;16.50;39.90
52575;DHT22;38468;48.114;-1.684;2022-12-07T14:44:44;16.00;40.80